sensor_id;sensor_type;location;lat;lon;timestamp;P1;durP1;ratioP1;P2;durP2;ratioP2
18568;SDS011;14780;48.316;-1.050;2023-02-28T00:00:11;3.90;;;2.15;;
18568;SDS011;14780;48.316;-1.050;2023-02-28T00:02:57;2.20;;;1.90;;
18568;SDS011;14780;48.316;-1.050;2023-02-28T00:05:43;2.97;;;1.80;;
18568;SDS011;14780;48.316;-1.050;2023-02-28T00:08:28;5.75;;;2.10;;
18568;SDS011;14780;48.316;-1.050;2023-02-28T00:11:13;2.55;;;1.83;;
18568;SDS011;14780;48.316;-1.050;2023-02-28T00:13:59;3.78;;;1.77;;
18568;SDS011;14780;48.316;-1.050;2023-02-28T00:16:43;2.88;;;1.83;;
18568;SDS011;14780;48.316;-1.050;2023-02-28T00:19:28;2.47;;;1.67;;
18568;SDS011;14780;48.316;-1.050;2023-02-28T00:22:13;2.28;;;1.77;;
18568;SDS011;14780;48.316;-1.050;2023-02-28T00:24:59;2.13;;;1.67;;
18568;SDS011;14780;48.316;-1.050;2023-02-28T00:27:44;2.13;;;1.75;;
18568;SDS011;14780;48.316;-1.050;2023-02-28T00:30:29;2.05;;;1.63;;
18568;SDS011;14780;48.316;-1.050;2023-02-28T00:33:14;2.30;;;1.73;;
18568;SDS011;14780;48.316;-1.050;2023-02-28T00:36:03;3.45;;;1.90;;
18568;SDS011;14780;48.316;-1.050;2023-02-28T00:38:53;2.58;;;1.70;;
18568;SDS011;14780;48.316;-1.050;2023-02-28T00:41:38;2.85;;;1.95;;
18568;SDS011;14780;48.316;-1.050;2023-02-28T00:44:22;4.20;;;1.90;;
18568;SDS011;14780;48.316;-1.050;2023-02-28T00:47:07;6.10;;;1.83;;
18568;SDS011;14780;48.316;-1.050;2023-02-28T00:49:52;2.20;;;1.58;;
18568;SDS011;14780;48.316;-1.050;2023-02-28T00:52:37;2.75;;;1.83;;
18568;SDS011;14780;48.316;-1.050;2023-02-28T00:55:22;2.85;;;1.80;;
18568;SDS011;14780;48.316;-1.050;2023-02-28T00:58:06;3.60;;;2.03;;
18568;SDS011;14780;48.316;-1.050;2023-02-28T01:00:51;3.78;;;2.08;;
18568;SDS011;14780;48.316;-1.050;2023-02-28T01:03:37;3.20;;;1.85;;
18568;SDS011;14780;48.316;-1.050;2023-02-28T01:06:22;2.22;;;1.67;;
18568;SDS011;14780;48.316;-1.050;2023-02-28T01:09:07;3.58;;;1.92;;
18568;SDS011;14780;48.316;-1.050;2023-02-28T01:11:53;2.67;;;1.67;;
18568;SDS011;14780;48.316;-1.050;2023-02-28T01:14:37;1.73;;;1.42;;
18568;SDS011;14780;48.316;-1.050;2023-02-28T01:17:22;3.30;;;1.77;;
18568;SDS011;14780;48.316;-1.050;2023-02-28T01:20:07;1.98;;;1.60;;
18568;SDS011;14780;48.316;-1.050;2023-02-28T01:22:53;4.05;;;1.90;;
18568;SDS011;14780;48.316;-1.050;2023-02-28T01:25:38;2.35;;;1.58;;
18568;SDS011;14780;48.316;-1.050;2023-02-28T01:28:23;3.10;;;1.90;;
18568;SDS011;14780;48.316;-1.050;2023-02-28T01:31:08;2.20;;;1.65;;
18568;SDS011;14780;48.316;-1.050;2023-02-28T01:33:53;2.90;;;1.90;;
18568;SDS011;14780;48.316;-1.050;2023-02-28T01:36:38;2.85;;;1.73;;
18568;SDS011;14780;48.316;-1.050;2023-02-28T01:39:22;2.25;;;1.77;;
18568;SDS011;14780;48.316;-1.050;2023-02-28T01:42:08;2.28;;;1.80;;
18568;SDS011;14780;48.316;-1.050;2023-02-28T01:47:47;5.22;;;2.15;;
18568;SDS011;14780;48.316;-1.050;2023-02-28T01:50:37;2.10;;;1.65;;
18568;SDS011;14780;48.316;-1.050;2023-02-28T01:53:30;2.97;;;1.98;;
18568;SDS011;14780;48.316;-1.050;2023-02-28T01:56:20;2.20;;;1.55;;
18568;SDS011;14780;48.316;-1.050;2023-02-28T01:59:09;2.13;;;1.80;;
18568;SDS011;14780;48.316;-1.050;2023-02-28T02:01:56;3.53;;;1.80;;
18568;SDS011;14780;48.316;-1.050;2023-02-28T02:04:46;5.28;;;1.90;;
18568;SDS011;14780;48.316;-1.050;2023-02-28T02:07:38;2.67;;;1.70;;
18568;SDS011;14780;48.316;-1.050;2023-02-28T02:22:37;2.38;;;1.63;;
18568;SDS011;14780;48.316;-1.050;2023-02-28T02:25:30;4.63;;;2.13;;
18568;SDS011;14780;48.316;-1.050;2023-02-28T02:29:12;2.17;;;1.70;;
18568;SDS011;14780;48.316;-1.050;2023-02-28T02:35:12;3.00;;;2.00;;
18568;SDS011;14780;48.316;-1.050;2023-02-28T02:38:19;2.95;;;1.77;;
18568;SDS011;14780;48.316;-1.050;2023-02-28T02:41:39;2.40;;;1.70;;
18568;SDS011;14780;48.316;-1.050;2023-02-28T02:44:52;2.97;;;1.92;;
18568;SDS011;14780;48.316;-1.050;2023-02-28T02:48:10;2.10;;;1.70;;
18568;SDS011;14780;48.316;-1.050;2023-02-28T02:50:59;2.30;;;1.70;;
18568;SDS011;14780;48.316;-1.050;2023-02-28T02:53:57;2.25;;;1.80;;
18568;SDS011;14780;48.316;-1.050;2023-02-28T02:56:51;2.35;;;1.70;;
18568;SDS011;14780;48.316;-1.050;2023-02-28T02:59:37;3.20;;;1.95;;
18568;SDS011;14780;48.316;-1.050;2023-02-28T03:02:24;4.55;;;2.20;;
18568;SDS011;14780;48.316;-1.050;2023-02-28T03:06:03;2.75;;;1.80;;
18568;SDS011;14780;48.316;-1.050;2023-02-28T03:08:30;2.22;;;1.70;;
18568;SDS011;14780;48.316;-1.050;2023-02-28T03:11:19;2.80;;;1.88;;
18568;SDS011;14780;48.316;-1.050;2023-02-28T03:14:15;4.22;;;1.92;;
18568;SDS011;14780;48.316;-1.050;2023-02-28T03:20:35;3.05;;;1.50;;
18568;SDS011;14780;48.316;-1.050;2023-02-28T03:24:11;2.22;;;1.70;;
18568;SDS011;14780;48.316;-1.050;2023-02-28T03:27:36;3.30;;;1.90;;
18568;SDS011;14780;48.316;-1.050;2023-02-28T03:30:06;3.35;;;2.00;;
18568;SDS011;14780;48.316;-1.050;2023-02-28T03:33:02;3.28;;;2.00;;
18568;SDS011;14780;48.316;-1.050;2023-02-28T03:35:58;3.22;;;1.88;;
18568;SDS011;14780;48.316;-1.050;2023-02-28T03:41:38;1.92;;;1.58;;
18568;SDS011;14780;48.316;-1.050;2023-02-28T03:44:32;3.13;;;1.80;;
18568;SDS011;14780;48.316;-1.050;2023-02-28T03:53:03;2.78;;;1.85;;
18568;SDS011;14780;48.316;-1.050;2023-02-28T03:55:57;3.30;;;1.70;;
18568;SDS011;14780;48.316;-1.050;2023-02-28T03:59:12;2.95;;;1.98;;
18568;SDS011;14780;48.316;-1.050;2023-02-28T04:02:10;2.63;;;1.70;;
18568;SDS011;14780;48.316;-1.050;2023-02-28T04:04:55;4.40;;;2.20;;
18568;SDS011;14780;48.316;-1.050;2023-02-28T04:07:40;2.88;;;1.80;;
18568;SDS011;14780;48.316;-1.050;2023-02-28T04:10:24;1.92;;;1.70;;
18568;SDS011;14780;48.316;-1.050;2023-02-28T04:13:10;3.45;;;2.05;;
18568;SDS011;14780;48.316;-1.050;2023-02-28T04:15:54;3.00;;;1.80;;
18568;SDS011;14780;48.316;-1.050;2023-02-28T04:18:39;2.70;;;1.80;;
18568;SDS011;14780;48.316;-1.050;2023-02-28T04:21:28;3.53;;;2.00;;
18568;SDS011;14780;48.316;-1.050;2023-02-28T04:24:14;3.33;;;1.63;;
18568;SDS011;14780;48.316;-1.050;2023-02-28T04:27:02;2.38;;;1.70;;
18568;SDS011;14780;48.316;-1.050;2023-02-28T04:29:47;2.83;;;1.92;;
18568;SDS011;14780;48.316;-1.050;2023-02-28T04:32:31;2.38;;;1.88;;
18568;SDS011;14780;48.316;-1.050;2023-02-28T04:35:16;2.45;;;1.70;;
18568;SDS011;14780;48.316;-1.050;2023-02-28T04:38:00;3.47;;;2.00;;
18568;SDS011;14780;48.316;-1.050;2023-02-28T04:40:45;3.45;;;2.10;;
18568;SDS011;14780;48.316;-1.050;2023-02-28T04:43:30;2.53;;;1.50;;
18568;SDS011;14780;48.316;-1.050;2023-02-28T04:46:15;2.88;;;2.00;;
18568;SDS011;14780;48.316;-1.050;2023-02-28T04:49:01;2.10;;;1.80;;
18568;SDS011;14780;48.316;-1.050;2023-02-28T04:51:46;1.90;;;1.52;;
18568;SDS011;14780;48.316;-1.050;2023-02-28T04:54:33;3.83;;;1.80;;
18568;SDS011;14780;48.316;-1.050;2023-02-28T04:57:18;2.65;;;2.00;;
18568;SDS011;14780;48.316;-1.050;2023-02-28T05:00:03;2.45;;;1.90;;
18568;SDS011;14780;48.316;-1.050;2023-02-28T05:02:50;1.60;;;1.50;;
18568;SDS011;14780;48.316;-1.050;2023-02-28T05:05:35;2.92;;;1.80;;
18568;SDS011;14780;48.316;-1.050;2023-02-28T05:08:19;2.88;;;1.90;;
18568;SDS011;14780;48.316;-1.050;2023-02-28T05:11:05;3.10;;;2.00;;
18568;SDS011;14780;48.316;-1.050;2023-02-28T05:14:01;2.78;;;1.70;;
18568;SDS011;14780;48.316;-1.050;2023-02-28T05:16:47;3.33;;;1.98;;
18568;SDS011;14780;48.316;-1.050;2023-02-28T05:19:31;3.40;;;1.83;;
18568;SDS011;14780;48.316;-1.050;2023-02-28T05:22:15;3.10;;;2.05;;
18568;SDS011;14780;48.316;-1.050;2023-02-28T05:25:00;3.15;;;1.88;;
18568;SDS011;14780;48.316;-1.050;2023-02-28T05:27:45;2.10;;;1.70;;
18568;SDS011;14780;48.316;-1.050;2023-02-28T05:30:30;2.42;;;1.85;;
18568;SDS011;14780;48.316;-1.050;2023-02-28T05:33:15;3.03;;;1.80;;
18568;SDS011;14780;48.316;-1.050;2023-02-28T05:35:59;3.45;;;2.00;;
18568;SDS011;14780;48.316;-1.050;2023-02-28T05:38:48;3.05;;;2.00;;
18568;SDS011;14780;48.316;-1.050;2023-02-28T05:41:33;2.45;;;1.90;;
18568;SDS011;14780;48.316;-1.050;2023-02-28T05:44:18;2.40;;;2.00;;
18568;SDS011;14780;48.316;-1.050;2023-02-28T05:47:03;3.72;;;1.90;;
18568;SDS011;14780;48.316;-1.050;2023-02-28T05:49:48;3.47;;;1.90;;
18568;SDS011;14780;48.316;-1.050;2023-02-28T05:52:32;3.88;;;2.17;;
18568;SDS011;14780;48.316;-1.050;2023-02-28T05:55:17;2.22;;;1.60;;
18568;SDS011;14780;48.316;-1.050;2023-02-28T05:58:02;3.15;;;1.85;;
18568;SDS011;14780;48.316;-1.050;2023-02-28T06:00:47;2.60;;;2.00;;
18568;SDS011;14780;48.316;-1.050;2023-02-28T06:03:32;3.10;;;1.90;;
18568;SDS011;14780;48.316;-1.050;2023-02-28T06:06:17;3.80;;;2.15;;
18568;SDS011;14780;48.316;-1.050;2023-02-28T06:09:03;3.20;;;2.00;;
18568;SDS011;14780;48.316;-1.050;2023-02-28T06:11:48;3.42;;;2.22;;
18568;SDS011;14780;48.316;-1.050;2023-02-28T06:14:33;3.13;;;2.20;;
18568;SDS011;14780;48.316;-1.050;2023-02-28T06:17:18;2.67;;;1.90;;
18568;SDS011;14780;48.316;-1.050;2023-02-28T06:20:03;2.45;;;1.80;;
18568;SDS011;14780;48.316;-1.050;2023-02-28T06:22:49;2.92;;;1.92;;
18568;SDS011;14780;48.316;-1.050;2023-02-28T06:25:34;3.65;;;1.95;;
18568;SDS011;14780;48.316;-1.050;2023-02-28T06:28:19;3.15;;;2.00;;
18568;SDS011;14780;48.316;-1.050;2023-02-28T06:31:07;3.58;;;2.13;;
18568;SDS011;14780;48.316;-1.050;2023-02-28T06:33:53;3.25;;;2.22;;
18568;SDS011;14780;48.316;-1.050;2023-02-28T06:36:38;3.30;;;2.17;;
18568;SDS011;14780;48.316;-1.050;2023-02-28T06:39:24;4.38;;;2.30;;
18568;SDS011;14780;48.316;-1.050;2023-02-28T06:42:09;2.13;;;1.90;;
18568;SDS011;14780;48.316;-1.050;2023-02-28T06:44:54;3.00;;;2.13;;
18568;SDS011;14780;48.316;-1.050;2023-02-28T06:47:40;2.50;;;1.80;;
18568;SDS011;14780;48.316;-1.050;2023-02-28T06:50:25;2.50;;;2.00;;
18568;SDS011;14780;48.316;-1.050;2023-02-28T06:53:11;2.70;;;2.10;;
18568;SDS011;14780;48.316;-1.050;2023-02-28T06:55:56;2.33;;;1.92;;
18568;SDS011;14780;48.316;-1.050;2023-02-28T06:58:41;3.13;;;2.25;;
18568;SDS011;14780;48.316;-1.050;2023-02-28T07:01:26;2.58;;;2.13;;
18568;SDS011;14780;48.316;-1.050;2023-02-28T07:04:11;3.05;;;1.88;;
18568;SDS011;14780;48.316;-1.050;2023-02-28T07:06:56;2.92;;;1.98;;
18568;SDS011;14780;48.316;-1.050;2023-02-28T07:09:41;4.40;;;2.20;;
18568;SDS011;14780;48.316;-1.050;2023-02-28T07:12:25;3.72;;;2.13;;
18568;SDS011;14780;48.316;-1.050;2023-02-28T07:15:10;3.75;;;2.10;;
18568;SDS011;14780;48.316;-1.050;2023-02-28T07:17:55;3.20;;;2.30;;
18568;SDS011;14780;48.316;-1.050;2023-02-28T07:20:40;2.97;;;1.73;;
18568;SDS011;14780;48.316;-1.050;2023-02-28T07:23:25;3.58;;;2.20;;
18568;SDS011;14780;48.316;-1.050;2023-02-28T07:26:14;2.80;;;2.00;;
18568;SDS011;14780;48.316;-1.050;2023-02-28T07:29:00;2.77;;;2.03;;
18568;SDS011;14780;48.316;-1.050;2023-02-28T07:31:46;2.60;;;2.03;;
18568;SDS011;14780;48.316;-1.050;2023-02-28T07:34:30;3.28;;;2.20;;
18568;SDS011;14780;48.316;-1.050;2023-02-28T07:37:15;5.15;;;2.38;;
18568;SDS011;14780;48.316;-1.050;2023-02-28T07:39:59;3.70;;;2.08;;
18568;SDS011;14780;48.316;-1.050;2023-02-28T07:42:45;4.22;;;2.20;;
18568;SDS011;14780;48.316;-1.050;2023-02-28T07:45:29;2.80;;;2.10;;
18568;SDS011;14780;48.316;-1.050;2023-02-28T07:48:17;3.50;;;2.10;;
18568;SDS011;14780;48.316;-1.050;2023-02-28T07:51:02;3.25;;;2.13;;
18568;SDS011;14780;48.316;-1.050;2023-02-28T07:53:47;3.63;;;2.30;;
18568;SDS011;14780;48.316;-1.050;2023-02-28T07:56:33;5.07;;;2.00;;
18568;SDS011;14780;48.316;-1.050;2023-02-28T07:59:18;2.60;;;2.03;;
18568;SDS011;14780;48.316;-1.050;2023-02-28T08:02:02;3.25;;;2.00;;
18568;SDS011;14780;48.316;-1.050;2023-02-28T08:04:47;4.30;;;2.28;;
18568;SDS011;14780;48.316;-1.050;2023-02-28T08:07:33;2.83;;;2.15;;
18568;SDS011;14780;48.316;-1.050;2023-02-28T08:10:17;3.22;;;2.20;;
18568;SDS011;14780;48.316;-1.050;2023-02-28T08:13:02;2.47;;;1.95;;
18568;SDS011;14780;48.316;-1.050;2023-02-28T08:15:47;3.78;;;2.20;;
18568;SDS011;14780;48.316;-1.050;2023-02-28T08:18:32;3.22;;;2.10;;
18568;SDS011;14780;48.316;-1.050;2023-02-28T08:21:17;3.45;;;2.22;;
18568;SDS011;14780;48.316;-1.050;2023-02-28T08:24:02;3.80;;;2.30;;
18568;SDS011;14780;48.316;-1.050;2023-02-28T08:26:47;3.13;;;2.03;;
18568;SDS011;14780;48.316;-1.050;2023-02-28T08:29:32;3.85;;;2.25;;
18568;SDS011;14780;48.316;-1.050;2023-02-28T08:32:16;3.33;;;2.25;;
18568;SDS011;14780;48.316;-1.050;2023-02-28T08:35:01;3.45;;;2.45;;
18568;SDS011;14780;48.316;-1.050;2023-02-28T08:37:49;3.72;;;2.20;;
18568;SDS011;14780;48.316;-1.050;2023-02-28T08:40:34;6.15;;;2.50;;
18568;SDS011;14780;48.316;-1.050;2023-02-28T08:43:19;3.47;;;2.20;;
18568;SDS011;14780;48.316;-1.050;2023-02-28T08:46:03;3.15;;;2.10;;
18568;SDS011;14780;48.316;-1.050;2023-02-28T08:48:51;6.82;;;2.30;;
18568;SDS011;14780;48.316;-1.050;2023-02-28T08:51:38;5.88;;;2.25;;
18568;SDS011;14780;48.316;-1.050;2023-02-28T08:54:23;5.30;;;2.88;;
18568;SDS011;14780;48.316;-1.050;2023-02-28T08:57:08;5.43;;;2.78;;
18568;SDS011;14780;48.316;-1.050;2023-02-28T08:59:53;5.07;;;2.50;;
18568;SDS011;14780;48.316;-1.050;2023-02-28T09:02:38;7.03;;;2.63;;
18568;SDS011;14780;48.316;-1.050;2023-02-28T09:05:23;3.22;;;2.53;;
18568;SDS011;14780;48.316;-1.050;2023-02-28T09:08:08;4.05;;;2.35;;
18568;SDS011;14780;48.316;-1.050;2023-02-28T09:10:52;8.55;;;2.70;;
18568;SDS011;14780;48.316;-1.050;2023-02-28T09:13:40;3.25;;;2.30;;
18568;SDS011;14780;48.316;-1.050;2023-02-28T09:16:25;6.78;;;2.40;;
18568;SDS011;14780;48.316;-1.050;2023-02-28T09:19:10;5.63;;;2.47;;
18568;SDS011;14780;48.316;-1.050;2023-02-28T09:21:56;3.05;;;2.17;;
18568;SDS011;14780;48.316;-1.050;2023-02-28T09:24:41;3.42;;;2.60;;
18568;SDS011;14780;48.316;-1.050;2023-02-28T09:27:26;3.90;;;2.17;;
18568;SDS011;14780;48.316;-1.050;2023-02-28T09:30:10;4.70;;;2.60;;
18568;SDS011;14780;48.316;-1.050;2023-02-28T09:32:56;4.22;;;2.40;;
18568;SDS011;14780;48.316;-1.050;2023-02-28T09:35:41;3.55;;;2.40;;
18568;SDS011;14780;48.316;-1.050;2023-02-28T09:38:26;3.58;;;2.50;;
18568;SDS011;14780;48.316;-1.050;2023-02-28T09:41:18;4.20;;;2.17;;
18568;SDS011;14780;48.316;-1.050;2023-02-28T09:44:06;5.00;;;2.50;;
18568;SDS011;14780;48.316;-1.050;2023-02-28T09:47:08;3.10;;;2.10;;
18568;SDS011;14780;48.316;-1.050;2023-02-28T09:49:54;3.53;;;2.13;;
18568;SDS011;14780;48.316;-1.050;2023-02-28T09:52:43;6.43;;;2.50;;
18568;SDS011;14780;48.316;-1.050;2023-02-28T09:55:38;2.90;;;2.08;;
18568;SDS011;14780;48.316;-1.050;2023-02-28T09:58:33;5.07;;;1.92;;
18568;SDS011;14780;48.316;-1.050;2023-02-28T10:01:43;2.80;;;1.98;;
18568;SDS011;14780;48.316;-1.050;2023-02-28T10:10:54;2.17;;;1.65;;
18568;SDS011;14780;48.316;-1.050;2023-02-28T10:13:48;3.00;;;2.05;;
18568;SDS011;14780;48.316;-1.050;2023-02-28T10:16:39;2.85;;;2.00;;
18568;SDS011;14780;48.316;-1.050;2023-02-28T10:19:39;4.07;;;2.13;;
18568;SDS011;14780;48.316;-1.050;2023-02-28T10:22:42;2.40;;;1.80;;
18568;SDS011;14780;48.316;-1.050;2023-02-28T10:25:29;3.42;;;2.00;;
18568;SDS011;14780;48.316;-1.050;2023-02-28T10:28:15;1.98;;;1.60;;
18568;SDS011;14780;48.316;-1.050;2023-02-28T10:31:01;3.47;;;1.83;;
18568;SDS011;14780;48.316;-1.050;2023-02-28T10:33:47;3.85;;;2.00;;
18568;SDS011;14780;48.316;-1.050;2023-02-28T10:36:31;2.40;;;1.65;;
18568;SDS011;14780;48.316;-1.050;2023-02-28T10:42:28;2.90;;;1.80;;
18568;SDS011;14780;48.316;-1.050;2023-02-28T10:45:17;4.18;;;2.08;;
18568;SDS011;14780;48.316;-1.050;2023-02-28T10:48:02;4.15;;;1.70;;
18568;SDS011;14780;48.316;-1.050;2023-02-28T10:50:54;2.47;;;1.77;;
18568;SDS011;14780;48.316;-1.050;2023-02-28T10:56:32;3.63;;;1.90;;
18568;SDS011;14780;48.316;-1.050;2023-02-28T10:59:23;3.47;;;2.08;;
18568;SDS011;14780;48.316;-1.050;2023-02-28T11:02:34;4.18;;;1.52;;
18568;SDS011;14780;48.316;-1.050;2023-02-28T11:05:31;3.55;;;2.00;;
18568;SDS011;14780;48.316;-1.050;2023-02-28T11:08:18;3.15;;;1.67;;
18568;SDS011;14780;48.316;-1.050;2023-02-28T11:11:04;2.17;;;1.60;;
18568;SDS011;14780;48.316;-1.050;2023-02-28T11:13:53;4.35;;;1.80;;
18568;SDS011;14780;48.316;-1.050;2023-02-28T11:16:47;4.45;;;2.10;;
18568;SDS011;14780;48.316;-1.050;2023-02-28T11:19:35;2.55;;;1.70;;
18568;SDS011;14780;48.316;-1.050;2023-02-28T11:22:27;2.85;;;1.63;;
18568;SDS011;14780;48.316;-1.050;2023-02-28T11:25:36;3.08;;;1.80;;
18568;SDS011;14780;48.316;-1.050;2023-02-28T11:28:32;4.93;;;2.17;;
18568;SDS011;14780;48.316;-1.050;2023-02-28T11:31:18;3.15;;;1.92;;
18568;SDS011;14780;48.316;-1.050;2023-02-28T11:34:10;5.53;;;2.30;;
18568;SDS011;14780;48.316;-1.050;2023-02-28T11:37:20;3.90;;;2.00;;
18568;SDS011;14780;48.316;-1.050;2023-02-28T11:40:08;8.13;;;2.75;;
18568;SDS011;14780;48.316;-1.050;2023-02-28T11:43:01;23.80;;;11.10;;
18568;SDS011;14780;48.316;-1.050;2023-02-28T11:49:05;18.20;;;11.07;;
18568;SDS011;14780;48.316;-1.050;2023-02-28T11:55:31;22.42;;;13.95;;
18568;SDS011;14780;48.316;-1.050;2023-02-28T12:11:46;94.40;;;54.03;;
18568;SDS011;14780;48.316;-1.050;2023-02-28T12:21:10;69.90;;;43.45;;
18568;SDS011;14780;48.316;-1.050;2023-02-28T12:26:46;66.88;;;38.03;;
18568;SDS011;14780;48.316;-1.050;2023-02-28T12:29:35;60.00;;;36.35;;
18568;SDS011;14780;48.316;-1.050;2023-02-28T12:35:22;54.55;;;31.90;;
18568;SDS011;14780;48.316;-1.050;2023-02-28T12:38:17;51.30;;;31.13;;
18568;SDS011;14780;48.316;-1.050;2023-02-28T12:44:05;49.70;;;27.90;;
18568;SDS011;14780;48.316;-1.050;2023-02-28T12:46:59;43.45;;;25.85;;
18568;SDS011;14780;48.316;-1.050;2023-02-28T12:49:49;45.28;;;25.55;;
18568;SDS011;14780;48.316;-1.050;2023-02-28T12:58:52;38.35;;;21.67;;
18568;SDS011;14780;48.316;-1.050;2023-02-28T13:08:34;31.77;;;18.17;;
18568;SDS011;14780;48.316;-1.050;2023-02-28T13:14:34;27.55;;;16.63;;
18568;SDS011;14780;48.316;-1.050;2023-02-28T13:17:21;27.45;;;15.45;;
18568;SDS011;14780;48.316;-1.050;2023-02-28T13:20:22;25.33;;;14.55;;
18568;SDS011;14780;48.316;-1.050;2023-02-28T13:23:35;27.55;;;15.35;;
18568;SDS011;14780;48.316;-1.050;2023-02-28T13:26:20;24.20;;;13.48;;
18568;SDS011;14780;48.316;-1.050;2023-02-28T13:37:36;18.33;;;11.45;;
18568;SDS011;14780;48.316;-1.050;2023-02-28T13:40:28;19.73;;;11.02;;
18568;SDS011;14780;48.316;-1.050;2023-02-28T13:43:23;18.17;;;9.98;;
18568;SDS011;14780;48.316;-1.050;2023-02-28T13:49:33;18.33;;;9.32;;
18568;SDS011;14780;48.316;-1.050;2023-02-28T13:52:22;15.57;;;9.82;;
18568;SDS011;14780;48.316;-1.050;2023-02-28T14:07:32;12.32;;;7.07;;
18568;SDS011;14780;48.316;-1.050;2023-02-28T14:16:21;11.00;;;6.30;;
18568;SDS011;14780;48.316;-1.050;2023-02-28T14:24:59;11.38;;;6.30;;
18568;SDS011;14780;48.316;-1.050;2023-02-28T14:27:58;10.57;;;5.93;;
18568;SDS011;14780;48.316;-1.050;2023-02-28T14:36:58;8.57;;;5.03;;
18568;SDS011;14780;48.316;-1.050;2023-02-28T14:39:46;8.93;;;5.20;;
18568;SDS011;14780;48.316;-1.050;2023-02-28T14:42:33;9.63;;;5.38;;
18568;SDS011;14780;48.316;-1.050;2023-02-28T14:45:21;8.25;;;4.20;;
18568;SDS011;14780;48.316;-1.050;2023-02-28T14:48:09;8.82;;;4.85;;
18568;SDS011;14780;48.316;-1.050;2023-02-28T14:50:55;7.25;;;4.43;;
18568;SDS011;14780;48.316;-1.050;2023-02-28T14:53:42;7.22;;;4.43;;
18568;SDS011;14780;48.316;-1.050;2023-02-28T14:56:30;8.13;;;4.40;;
18568;SDS011;14780;48.316;-1.050;2023-02-28T15:02:18;7.53;;;3.60;;
18568;SDS011;14780;48.316;-1.050;2023-02-28T15:08:12;6.88;;;3.42;;
18568;SDS011;14780;48.316;-1.050;2023-02-28T15:13:48;7.50;;;3.70;;
18568;SDS011;14780;48.316;-1.050;2023-02-28T15:16:41;6.15;;;3.42;;
18568;SDS011;14780;48.316;-1.050;2023-02-28T15:19:29;5.28;;;3.15;;
18568;SDS011;14780;48.316;-1.050;2023-02-28T15:22:19;5.95;;;3.50;;
18568;SDS011;14780;48.316;-1.050;2023-02-28T15:25:15;5.80;;;3.55;;
18568;SDS011;14780;48.316;-1.050;2023-02-28T15:28:03;4.85;;;3.28;;
18568;SDS011;14780;48.316;-1.050;2023-02-28T15:30:56;7.18;;;3.20;;
18568;SDS011;14780;48.316;-1.050;2023-02-28T15:33:51;5.60;;;3.08;;
18568;SDS011;14780;48.316;-1.050;2023-02-28T15:36:38;5.53;;;3.17;;
18568;SDS011;14780;48.316;-1.050;2023-02-28T15:39:24;4.15;;;2.50;;
18568;SDS011;14780;48.316;-1.050;2023-02-28T15:42:20;5.00;;;2.90;;
18568;SDS011;14780;48.316;-1.050;2023-02-28T15:45:25;4.60;;;2.95;;
18568;SDS011;14780;48.316;-1.050;2023-02-28T15:48:25;7.10;;;2.90;;
18568;SDS011;14780;48.316;-1.050;2023-02-28T15:54:12;4.75;;;2.58;;
18568;SDS011;14780;48.316;-1.050;2023-02-28T15:57:06;7.65;;;2.83;;
18568;SDS011;14780;48.316;-1.050;2023-02-28T15:59:57;6.75;;;2.75;;
18568;SDS011;14780;48.316;-1.050;2023-02-28T16:02:48;7.63;;;2.72;;
18568;SDS011;14780;48.316;-1.050;2023-02-28T16:05:33;7.43;;;3.22;;
18568;SDS011;14780;48.316;-1.050;2023-02-28T16:08:18;9.93;;;3.20;;
18568;SDS011;14780;48.316;-1.050;2023-02-28T16:11:03;7.13;;;3.05;;
18568;SDS011;14780;48.316;-1.050;2023-02-28T16:13:52;8.75;;;3.25;;
18568;SDS011;14780;48.316;-1.050;2023-02-28T16:16:41;6.60;;;3.65;;
18568;SDS011;14780;48.316;-1.050;2023-02-28T16:19:31;21.83;;;4.07;;
18568;SDS011;14780;48.316;-1.050;2023-02-28T16:22:17;7.70;;;3.80;;
18568;SDS011;14780;48.316;-1.050;2023-02-28T16:25:02;7.35;;;3.60;;
18568;SDS011;14780;48.316;-1.050;2023-02-28T16:27:48;13.25;;;4.20;;
18568;SDS011;14780;48.316;-1.050;2023-02-28T16:30:34;4.95;;;3.70;;
18568;SDS011;14780;48.316;-1.050;2023-02-28T16:33:19;5.75;;;3.45;;
18568;SDS011;14780;48.316;-1.050;2023-02-28T16:36:05;8.70;;;4.28;;
18568;SDS011;14780;48.316;-1.050;2023-02-28T16:38:53;5.93;;;3.47;;
18568;SDS011;14780;48.316;-1.050;2023-02-28T16:41:38;7.85;;;3.53;;
18568;SDS011;14780;48.316;-1.050;2023-02-28T16:44:28;8.13;;;3.80;;
18568;SDS011;14780;48.316;-1.050;2023-02-28T16:47:15;4.60;;;3.08;;
18568;SDS011;14780;48.316;-1.050;2023-02-28T16:50:01;5.95;;;3.55;;
18568;SDS011;14780;48.316;-1.050;2023-02-28T16:52:48;6.55;;;3.40;;
18568;SDS011;14780;48.316;-1.050;2023-02-28T16:55:35;7.70;;;3.20;;
18568;SDS011;14780;48.316;-1.050;2023-02-28T16:58:20;3.80;;;2.80;;
18568;SDS011;14780;48.316;-1.050;2023-02-28T17:01:08;7.68;;;3.55;;
18568;SDS011;14780;48.316;-1.050;2023-02-28T17:03:53;4.38;;;2.95;;
18568;SDS011;14780;48.316;-1.050;2023-02-28T17:06:38;5.35;;;2.65;;
18568;SDS011;14780;48.316;-1.050;2023-02-28T17:09:23;6.03;;;2.80;;
18568;SDS011;14780;48.316;-1.050;2023-02-28T17:12:10;4.68;;;2.90;;
18568;SDS011;14780;48.316;-1.050;2023-02-28T17:14:54;4.85;;;2.80;;
18568;SDS011;14780;48.316;-1.050;2023-02-28T17:17:39;5.38;;;2.80;;
18568;SDS011;14780;48.316;-1.050;2023-02-28T17:20:25;5.07;;;2.90;;
18568;SDS011;14780;48.316;-1.050;2023-02-28T17:23:10;5.10;;;2.83;;
18568;SDS011;14780;48.316;-1.050;2023-02-28T17:25:55;4.55;;;2.67;;
18568;SDS011;14780;48.316;-1.050;2023-02-28T17:28:40;4.07;;;2.67;;
18568;SDS011;14780;48.316;-1.050;2023-02-28T17:31:25;4.88;;;3.28;;
18568;SDS011;14780;48.316;-1.050;2023-02-28T17:34:10;4.22;;;2.97;;
18568;SDS011;14780;48.316;-1.050;2023-02-28T17:37:01;7.50;;;3.40;;
18568;SDS011;14780;48.316;-1.050;2023-02-28T17:39:46;28.73;;;12.93;;
18568;SDS011;14780;48.316;-1.050;2023-02-28T17:42:31;43.58;;;20.02;;
18568;SDS011;14780;48.316;-1.050;2023-02-28T17:45:16;40.47;;;18.13;;
18568;SDS011;14780;48.316;-1.050;2023-02-28T17:48:01;34.38;;;16.88;;
18568;SDS011;14780;48.316;-1.050;2023-02-28T17:50:46;36.03;;;16.95;;
18568;SDS011;14780;48.316;-1.050;2023-02-28T17:53:30;31.42;;;14.30;;
18568;SDS011;14780;48.316;-1.050;2023-02-28T17:56:19;34.05;;;14.18;;
18568;SDS011;14780;48.316;-1.050;2023-02-28T18:01:52;25.83;;;12.32;;
18568;SDS011;14780;48.316;-1.050;2023-02-28T18:04:37;21.77;;;11.27;;
18568;SDS011;14780;48.316;-1.050;2023-02-28T18:07:22;23.05;;;9.95;;
18568;SDS011;14780;48.316;-1.050;2023-02-28T18:10:11;20.73;;;9.38;;
18568;SDS011;14780;48.316;-1.050;2023-02-28T18:13:02;18.83;;;9.90;;
18568;SDS011;14780;48.316;-1.050;2023-02-28T18:15:47;23.65;;;9.90;;
18568;SDS011;14780;48.316;-1.050;2023-02-28T18:18:31;17.48;;;9.27;;
18568;SDS011;14780;48.316;-1.050;2023-02-28T18:21:16;16.02;;;7.82;;
18568;SDS011;14780;48.316;-1.050;2023-02-28T18:24:01;13.98;;;7.60;;
18568;SDS011;14780;48.316;-1.050;2023-02-28T18:26:45;14.73;;;7.15;;
18568;SDS011;14780;48.316;-1.050;2023-02-28T18:29:30;14.88;;;6.65;;
18568;SDS011;14780;48.316;-1.050;2023-02-28T18:32:16;10.98;;;5.90;;
18568;SDS011;14780;48.316;-1.050;2023-02-28T18:35:00;12.90;;;5.78;;
18568;SDS011;14780;48.316;-1.050;2023-02-28T18:37:45;12.98;;;6.50;;
18568;SDS011;14780;48.316;-1.050;2023-02-28T18:40:30;11.70;;;5.80;;
18568;SDS011;14780;48.316;-1.050;2023-02-28T18:43:14;11.45;;;5.60;;
18568;SDS011;14780;48.316;-1.050;2023-02-28T18:46:03;11.77;;;5.63;;
18568;SDS011;14780;48.316;-1.050;2023-02-28T18:48:49;9.18;;;4.75;;
18568;SDS011;14780;48.316;-1.050;2023-02-28T18:51:33;9.68;;;4.68;;
18568;SDS011;14780;48.316;-1.050;2023-02-28T18:54:20;9.85;;;5.15;;
18568;SDS011;14780;48.316;-1.050;2023-02-28T18:57:05;10.55;;;4.65;;
18568;SDS011;14780;48.316;-1.050;2023-02-28T18:59:49;12.85;;;4.43;;
18568;SDS011;14780;48.316;-1.050;2023-02-28T19:02:35;9.13;;;4.07;;
18568;SDS011;14780;48.316;-1.050;2023-02-28T19:05:20;8.35;;;4.13;;